createdAt,value
2017-03-01T00:00:06.001Z,23.7
2017-03-01T00:00:46.507Z,23.72
2017-03-01T00:01:26.993Z,23.7
2017-03-01T00:02:07.498Z,23.74
2017-03-01T00:02:48.004Z,23.64
2017-03-01T00:03:28.499Z,23.67
2017-03-01T00:04:08.993Z,23.72
2017-03-01T00:04:49.495Z,23.74
2017-03-01T00:05:29.990Z,23.75
2017-03-01T00:06:10.489Z,23.71
2017-03-01T00:06:50.995Z,23.81
2017-03-01T00:07:31.503Z,23.74
2017-03-01T00:08:11.991Z,23.7
2017-03-01T00:08:52.500Z,23.75
2017-03-01T00:09:32.991Z,23.71
2017-03-01T00:10:13.499Z,23.71
2017-03-01T00:10:53.998Z,23.7
2017-03-01T00:11:34.494Z,23.7
2017-03-01T00:12:14.979Z,23.75
2017-03-01T00:12:55.494Z,23.71
2017-03-01T00:13:35.998Z,23.72
2017-03-01T00:14:16.493Z,23.75
2017-03-01T00:14:56.981Z,23.75
2017-03-01T00:15:37.473Z,23.75
2017-03-01T00:16:17.981Z,23.67
2017-03-01T00:16:58.480Z,23.72
2017-03-01T00:17:38.976Z,23.72
2017-03-01T00:18:19.488Z,23.67
2017-03-01T00:18:59.977Z,23.72
2017-03-01T00:19:40.461Z,23.67
2017-03-01T00:20:20.943Z,23.71
2017-03-01T00:21:01.441Z,23.7
2017-03-01T00:21:41.932Z,23.72
2017-03-01T00:22:22.420Z,23.64
2017-03-01T00:23:02.928Z,23.71
2017-03-01T00:23:43.419Z,23.75
2017-03-01T00:24:23.907Z,23.64
2017-03-01T00:25:04.402Z,23.74
2017-03-01T00:25:44.902Z,23.63
2017-03-01T00:26:25.381Z,23.67
2017-03-01T00:27:05.879Z,23.72
2017-03-01T00:27:46.374Z,23.7
2017-03-01T00:28:26.868Z,23.66
2017-03-01T00:29:07.363Z,23.64
2017-03-01T00:29:47.877Z,23.72
2017-03-01T00:30:28.403Z,23.7
2017-03-01T00:31:08.862Z,23.66
2017-03-01T00:31:49.365Z,23.7
2017-03-01T00:32:29.875Z,23.66
2017-03-01T00:33:10.372Z,23.63
2017-03-01T00:33:50.864Z,23.66
2017-03-01T00:34:31.361Z,23.71
2017-03-01T00:35:11.848Z,23.75
2017-03-01T00:35:52.346Z,23.72
2017-03-01T00:36:32.829Z,23.77
2017-03-01T00:37:13.348Z,23.74
2017-03-01T00:37:53.831Z,23.77
2017-03-01T00:38:34.339Z,23.72
2017-03-01T00:39:14.826Z,23.77
2017-03-01T00:39:55.340Z,23.71
2017-03-01T00:40:35.825Z,23.78
2017-03-01T00:41:16.317Z,23.74
2017-03-01T00:41:56.808Z,23.74
2017-03-01T00:42:37.310Z,23.77
2017-03-01T00:43:17.807Z,23.79
2017-03-01T00:43:58.306Z,23.78
2017-03-01T00:44:38.788Z,23.75
2017-03-01T00:45:19.285Z,23.78
2017-03-01T00:45:59.776Z,23.79
2017-03-01T00:46:40.266Z,23.7
2017-03-01T00:47:20.757Z,23.74
2017-03-01T00:48:01.250Z,23.72
2017-03-01T00:48:41.740Z,23.71
2017-03-01T00:49:22.252Z,23.78
2017-03-01T00:50:02.744Z,23.75
2017-03-01T00:50:43.245Z,23.72
2017-03-01T00:51:23.758Z,23.74
2017-03-01T00:52:04.251Z,23.77
2017-03-01T00:52:44.748Z,23.67
2017-03-01T00:53:25.250Z,23.64
2017-03-01T00:54:05.738Z,23.62
2017-03-01T00:54:46.227Z,23.75
2017-03-01T00:55:26.718Z,23.72
2017-03-01T00:56:07.214Z,23.72
2017-03-01T00:56:47.700Z,23.78
2017-03-01T00:57:28.188Z,23.78
2017-03-01T00:58:08.706Z,23.7
2017-03-01T00:58:49.221Z,23.71
2017-03-01T00:59:29.709Z,23.72
2017-03-01T01:00:10.215Z,23.75
2017-03-01T01:00:50.694Z,23.67
2017-03-01T01:01:31.210Z,23.72
2017-03-01T01:02:11.689Z,23.7
2017-03-01T01:02:52.190Z,23.74
2017-03-01T01:03:32.691Z,23.64
2017-03-01T01:04:13.180Z,23.78
2017-03-01T01:04:53.673Z,23.72
2017-03-01T01:05:34.163Z,23.7
2017-03-01T01:06:14.655Z,23.71
2017-03-01T01:06:55.138Z,23.71
2017-03-01T01:07:35.631Z,23.7
2017-03-01T01:08:16.136Z,23.77
2017-03-01T01:08:56.621Z,23.74
2017-03-01T01:09:37.135Z,23.74
2017-03-01T01:10:17.636Z,23.64
2017-03-01T01:10:58.133Z,23.66
2017-03-01T01:11:38.625Z,23.7
2017-03-01T01:12:19.129Z,23.7
2017-03-01T01:12:59.633Z,23.78
2017-03-01T01:13:40.131Z,23.75
2017-03-01T01:14:20.625Z,23.77
2017-03-01T01:15:01.133Z,23.75
2017-03-01T01:15:41.620Z,23.77
2017-03-01T01:16:22.109Z,23.72
2017-03-01T01:17:02.590Z,23.71
2017-03-01T01:17:43.094Z,23.63
2017-03-01T01:18:23.581Z,23.77
2017-03-01T01:19:04.079Z,23.72
2017-03-01T01:19:44.575Z,23.63
2017-03-01T01:20:25.059Z,23.66
2017-03-01T01:21:05.556Z,23.66
2017-03-01T01:21:46.045Z,23.71
2017-03-01T01:22:26.540Z,23.71
2017-03-01T01:23:07.025Z,23.63
2017-03-01T01:23:47.520Z,23.62
2017-03-01T01:24:28.017Z,23.67
2017-03-01T01:25:08.502Z,23.7
2017-03-01T01:25:48.996Z,23.63
2017-03-01T01:26:29.484Z,23.7
2017-03-01T01:27:09.986Z,23.71
2017-03-01T01:27:50.474Z,23.7
2017-03-01T01:28:30.966Z,23.6
2017-03-01T01:29:11.593Z,23.64
2017-03-01T01:29:52.065Z,23.66
2017-03-01T01:30:32.565Z,23.62
2017-03-01T01:31:13.052Z,23.62
2017-03-01T01:31:53.537Z,23.63
2017-03-01T01:32:34.064Z,23.62
2017-03-01T01:33:14.564Z,23.64
2017-03-01T01:33:55.063Z,23.7
2017-03-01T01:34:35.559Z,23.62
2017-03-01T01:35:16.059Z,23.71
2017-03-01T01:35:56.562Z,23.67
2017-03-01T01:36:37.063Z,23.63
2017-03-01T01:37:17.551Z,23.67
2017-03-01T01:37:58.053Z,23.57
2017-03-01T01:38:38.559Z,23.55
2017-03-01T01:39:19.051Z,23.55
2017-03-01T01:39:59.555Z,23.53
2017-03-01T01:40:40.046Z,23.63
2017-03-01T01:41:20.555Z,23.63
2017-03-01T01:42:01.046Z,23.6
2017-03-01T01:42:41.550Z,23.63
2017-03-01T01:43:22.054Z,23.57
2017-03-01T01:44:02.551Z,23.57
2017-03-01T01:44:43.037Z,23.63
2017-03-01T01:45:23.554Z,23.57
2017-03-01T01:46:04.038Z,23.63
2017-03-01T01:46:44.528Z,23.7
2017-03-01T01:47:25.022Z,23.63
2017-03-01T01:48:05.523Z,23.66
2017-03-01T01:48:46.008Z,23.59
2017-03-01T01:49:26.522Z,23.64
2017-03-01T01:50:07.014Z,23.63
2017-03-01T01:50:47.510Z,23.71
2017-03-01T01:51:27.999Z,23.63
2017-03-01T01:52:08.487Z,23.63
2017-03-01T01:52:48.991Z,23.66
2017-03-01T01:53:29.491Z,23.67
2017-03-01T01:54:09.978Z,23.63
2017-03-01T01:54:50.491Z,23.67
2017-03-01T01:55:30.992Z,23.56
2017-03-01T01:56:11.481Z,23.63
2017-03-01T01:56:51.979Z,23.57
2017-03-01T01:57:32.471Z,23.57
2017-03-01T01:58:12.989Z,23.56
2017-03-01T01:58:53.472Z,23.62
2017-03-01T01:59:33.962Z,23.59
2017-03-01T02:00:14.453Z,23.7
2017-03-01T02:00:54.951Z,23.66
2017-03-01T02:01:35.443Z,23.62
2017-03-01T02:02:15.938Z,23.63
2017-03-01T02:02:56.433Z,23.66
2017-03-01T02:03:36.930Z,23.66
2017-03-01T02:04:17.430Z,23.66
2017-03-01T02:04:57.925Z,23.67
2017-03-01T02:05:38.436Z,23.56
2017-03-01T02:06:18.924Z,23.63
2017-03-01T02:06:59.434Z,23.57
2017-03-01T02:07:39.935Z,23.67
2017-03-01T02:08:20.426Z,23.56
2017-03-01T02:09:00.912Z,23.57
2017-03-01T02:09:41.401Z,23.59
2017-03-01T02:10:21.918Z,23.55
2017-03-01T02:11:02.415Z,23.57
2017-03-01T02:11:42.908Z,23.5
2017-03-01T02:12:23.397Z,23.56
2017-03-01T02:13:03.887Z,23.53
2017-03-01T02:13:44.387Z,23.53
2017-03-01T02:14:24.877Z,23.56
2017-03-01T02:15:05.357Z,23.57
2017-03-01T02:15:45.863Z,23.55
2017-03-01T02:16:26.356Z,23.6
2017-03-01T02:17:06.842Z,23.56
2017-03-01T02:17:47.324Z,23.53
2017-03-01T02:18:27.818Z,23.56
2017-03-01T02:19:08.311Z,23.55
2017-03-01T02:19:48.797Z,23.52
2017-03-01T02:20:29.314Z,23.48
2017-03-01T02:21:09.811Z,23.53
2017-03-01T02:21:50.308Z,23.53
2017-03-01T02:22:30.803Z,23.57
2017-03-01T02:23:11.299Z,23.47
2017-03-01T02:23:51.801Z,23.48
2017-03-01T02:24:32.285Z,23.5
2017-03-01T02:25:12.776Z,23.56
2017-03-01T02:25:53.274Z,23.55
2017-03-01T02:26:33.760Z,23.5
2017-03-01T02:27:14.242Z,23.55
2017-03-01T02:27:54.742Z,23.53
2017-03-01T02:28:35.254Z,23.59
2017-03-01T02:29:15.753Z,23.55
2017-03-01T02:29:56.242Z,23.6
2017-03-01T02:30:36.727Z,23.55
2017-03-01T02:31:17.223Z,23.6
2017-03-01T02:31:57.716Z,23.56
2017-03-01T02:32:38.205Z,23.57
2017-03-01T02:33:18.701Z,23.57
2017-03-01T02:33:59.197Z,23.57
2017-03-01T02:34:39.690Z,23.55
2017-03-01T02:35:20.182Z,23.53
2017-03-01T02:36:00.681Z,23.53
2017-03-01T02:36:41.216Z,23.53
2017-03-01T02:37:21.686Z,23.53
2017-03-01T02:38:02.198Z,23.57
2017-03-01T02:38:42.678Z,23.53
2017-03-01T02:39:23.167Z,23.53
2017-03-01T02:40:03.662Z,23.53
2017-03-01T02:40:44.159Z,23.48
2017-03-01T02:41:24.642Z,23.52
2017-03-01T02:42:05.137Z,23.47
2017-03-01T02:42:45.636Z,23.53
2017-03-01T02:43:26.133Z,23.52
2017-03-01T02:44:06.638Z,23.5
2017-03-01T02:44:47.127Z,23.53
2017-03-01T02:45:27.627Z,23.48
2017-03-01T02:46:08.126Z,23.55
2017-03-01T02:46:48.611Z,23.52
2017-03-01T02:47:29.102Z,23.52
2017-03-01T02:48:09.603Z,23.52
2017-03-01T02:48:50.081Z,23.53
2017-03-01T02:49:30.569Z,23.5
2017-03-01T02:50:11.057Z,23.5
2017-03-01T02:50:51.550Z,23.56
2017-03-01T02:51:32.048Z,23.59
2017-03-01T02:52:12.537Z,23.56
2017-03-01T02:52:53.030Z,23.56
2017-03-01T02:53:33.519Z,23.56
2017-03-01T02:54:14.010Z,23.5
2017-03-01T02:54:54.502Z,23.52
2017-03-01T02:55:34.995Z,23.53
2017-03-01T02:56:15.488Z,23.59
2017-03-01T02:56:55.979Z,23.5
2017-03-01T02:57:36.474Z,23.5
2017-03-01T02:58:16.963Z,23.53
2017-03-01T02:58:57.455Z,23.5
2017-03-01T02:59:37.963Z,23.5
2017-03-01T03:00:18.465Z,23.5
2017-03-01T03:00:58.969Z,23.56
2017-03-01T03:01:39.451Z,23.53
2017-03-01T03:02:19.941Z,23.48
2017-03-01T03:03:00.437Z,23.48
2017-03-01T03:03:40.939Z,23.57
2017-03-01T03:04:21.418Z,23.5
2017-03-01T03:05:01.917Z,23.53
2017-03-01T03:05:42.417Z,23.47
2017-03-01T03:06:22.907Z,23.55
2017-03-01T03:07:03.412Z,23.53
2017-03-01T03:07:43.912Z,23.48
2017-03-01T03:08:24.407Z,23.55
2017-03-01T03:09:04.900Z,23.47
2017-03-01T03:09:45.392Z,23.52
2017-03-01T03:10:25.882Z,23.47
2017-03-01T03:11:06.988Z,23.52
2017-03-01T03:11:47.475Z,23.53
2017-03-01T03:12:27.973Z,23.55
2017-03-01T03:13:08.465Z,23.52
2017-03-01T03:13:48.957Z,23.48
2017-03-01T03:14:29.445Z,23.53
2017-03-01T03:16:42.240Z,23.55
2017-03-01T03:17:22.723Z,23.45
2017-03-01T03:18:03.228Z,23.45
2017-03-01T03:18:43.725Z,23.53
2017-03-01T03:19:24.216Z,23.57
2017-03-01T03:20:04.707Z,23.53
2017-03-01T03:20:45.197Z,23.52
2017-03-01T03:21:25.695Z,23.5
2017-03-01T03:22:06.174Z,23.47
2017-03-01T03:22:46.669Z,23.5
2017-03-01T03:23:27.158Z,23.56
2017-03-01T03:24:07.645Z,23.47
2017-03-01T03:24:48.141Z,23.47
2017-03-01T03:25:28.622Z,23.47
2017-03-01T03:26:09.116Z,23.55
2017-03-01T03:26:49.615Z,23.57
2017-03-01T03:27:30.117Z,23.55
2017-03-01T03:28:10.612Z,23.52
2017-03-01T03:28:51.103Z,23.52
2017-03-01T03:29:31.589Z,23.44
2017-03-01T03:30:12.074Z,23.44
2017-03-01T03:30:52.565Z,23.55
2017-03-01T03:31:33.055Z,23.45
2017-03-01T03:32:13.561Z,23.52
2017-03-01T03:32:54.059Z,23.48
2017-03-01T03:33:34.542Z,23.48
2017-03-01T03:34:15.036Z,23.47
2017-03-01T03:34:55.526Z,23.5
2017-03-01T03:35:36.032Z,23.53
2017-03-01T03:36:16.518Z,23.48
2017-03-01T03:36:57.028Z,23.53
2017-03-01T03:37:37.504Z,23.5
2017-03-01T03:38:17.986Z,23.53
2017-03-01T03:38:58.477Z,23.5
2017-03-01T03:39:38.967Z,23.52
2017-03-01T03:40:19.474Z,23.52
2017-03-01T03:40:59.959Z,23.52
2017-03-01T03:41:40.452Z,23.56
2017-03-01T03:42:20.945Z,23.5
2017-03-01T03:43:01.438Z,23.52
2017-03-01T03:43:41.945Z,23.47
2017-03-01T03:44:22.437Z,23.55
2017-03-01T03:45:02.942Z,23.45
2017-03-01T03:45:43.436Z,23.55
2017-03-01T03:46:24.026Z,23.53
2017-03-01T03:47:04.520Z,23.48
2017-03-01T03:47:45.015Z,23.48
2017-03-01T03:48:25.504Z,23.52
2017-03-01T03:49:05.997Z,23.5
2017-03-01T03:49:46.492Z,23.48
2017-03-01T03:50:26.984Z,23.53
2017-03-01T03:51:07.474Z,23.5
2017-03-01T03:51:47.973Z,23.55
2017-03-01T03:52:28.469Z,23.48
2017-03-01T03:53:08.963Z,23.48
2017-03-01T03:53:49.460Z,23.53
2017-03-01T03:54:29.946Z,23.48
2017-03-01T03:55:10.438Z,23.5
2017-03-01T03:55:50.938Z,23.48
2017-03-01T03:56:31.435Z,23.48
2017-03-01T03:57:11.927Z,23.5
2017-03-01T03:57:52.433Z,23.52
2017-03-01T03:58:32.934Z,23.53
2017-03-01T03:59:13.418Z,23.52
2017-03-01T03:59:53.910Z,23.48
2017-03-01T04:00:34.401Z,23.53
2017-03-01T04:01:14.905Z,23.56
2017-03-01T04:01:55.382Z,23.45
2017-03-01T04:02:35.871Z,23.56
2017-03-01T04:03:16.368Z,23.5
2017-03-01T04:03:56.872Z,23.56
2017-03-01T04:04:37.375Z,23.57
2017-03-01T04:05:17.864Z,23.48
2017-03-01T04:05:58.352Z,23.55
2017-03-01T04:06:38.848Z,23.55
2017-03-01T04:07:19.342Z,23.55
2017-03-01T04:07:59.833Z,23.55
2017-03-01T04:08:40.329Z,23.52
2017-03-01T04:09:20.823Z,23.48
2017-03-01T04:10:01.314Z,23.5
2017-03-01T04:10:41.819Z,23.47
2017-03-01T04:11:22.312Z,23.5
2017-03-01T04:12:02.812Z,23.45
2017-03-01T04:12:43.314Z,23.5
2017-03-01T04:13:23.817Z,23.47
2017-03-01T04:14:04.305Z,23.53
2017-03-01T04:14:44.792Z,23.45
2017-03-01T04:15:25.289Z,23.55
2017-03-01T04:16:05.783Z,23.48
2017-03-01T04:16:46.271Z,23.48
2017-03-01T04:17:26.764Z,23.48
2017-03-01T04:18:07.261Z,23.56
2017-03-01T04:18:47.748Z,23.55
2017-03-01T04:19:28.261Z,23.5
2017-03-01T04:20:08.744Z,23.42
2017-03-01T04:20:49.235Z,23.55
2017-03-01T04:21:29.732Z,23.53
2017-03-01T04:22:10.228Z,23.52
2017-03-01T04:22:50.720Z,23.47
2017-03-01T04:23:31.209Z,23.52
2017-03-01T04:24:11.706Z,23.52
2017-03-01T04:24:52.205Z,23.56
2017-03-01T04:25:32.700Z,23.55
2017-03-01T04:26:13.195Z,23.52
2017-03-01T04:26:53.689Z,23.56
2017-03-01T04:27:34.194Z,23.57
2017-03-01T04:28:14.681Z,23.48
2017-03-01T04:28:55.174Z,23.55
2017-03-01T04:29:35.669Z,23.45
2017-03-01T04:30:16.151Z,23.53
2017-03-01T04:30:56.633Z,23.56
2017-03-01T04:31:37.127Z,23.48
2017-03-01T04:32:17.604Z,23.57
2017-03-01T04:32:58.099Z,23.47
2017-03-01T04:33:38.592Z,23.53
2017-03-01T04:34:19.080Z,23.53
2017-03-01T04:34:59.579Z,23.56
2017-03-01T04:35:40.079Z,23.48
2017-03-01T04:36:20.565Z,23.59
2017-03-01T04:37:01.050Z,23.5
2017-03-01T04:37:41.546Z,23.55
2017-03-01T04:38:22.036Z,23.56
2017-03-01T04:39:02.523Z,23.59
2017-03-01T04:39:43.022Z,23.57
2017-03-01T04:40:23.491Z,23.52
2017-03-01T04:41:03.975Z,23.53
2017-03-01T04:41:44.483Z,23.47
2017-03-01T04:42:25.002Z,23.48
2017-03-01T04:43:05.483Z,23.56
2017-03-01T04:43:45.981Z,23.56
2017-03-01T04:44:26.478Z,23.57
2017-03-01T04:45:06.965Z,23.55
2017-03-01T04:45:47.476Z,23.56
2017-03-01T04:46:27.977Z,23.57
2017-03-01T04:47:08.485Z,23.53
2017-03-01T04:47:48.973Z,23.56
2017-03-01T04:48:29.479Z,23.56
2017-03-01T04:49:09.967Z,23.52
2017-03-01T04:49:50.454Z,23.55
2017-03-01T04:50:30.950Z,23.56
2017-03-01T04:51:11.448Z,23.56
2017-03-01T04:51:51.930Z,23.56
2017-03-01T04:52:32.427Z,23.55
2017-03-01T04:53:12.920Z,23.59
2017-03-01T04:53:53.410Z,23.57
2017-03-01T04:54:33.909Z,23.59
2017-03-01T04:55:14.394Z,23.59
2017-03-01T04:55:54.888Z,23.63
2017-03-01T04:56:35.376Z,23.57
2017-03-01T04:57:15.875Z,23.56
2017-03-01T04:57:56.364Z,23.57
2017-03-01T04:58:36.864Z,23.56
2017-03-01T04:59:17.356Z,23.55
2017-03-01T04:59:57.841Z,23.57
2017-03-01T05:00:38.334Z,23.56
2017-03-01T05:01:18.816Z,23.56
2017-03-01T05:01:59.298Z,23.5
2017-03-01T05:02:39.785Z,23.57
2017-03-01T05:03:20.274Z,23.55
2017-03-01T05:04:00.783Z,23.57
2017-03-01T05:04:41.265Z,23.56
2017-03-01T05:05:21.749Z,23.56
2017-03-01T05:06:02.248Z,23.56
2017-03-01T05:06:42.749Z,23.57
2017-03-01T05:07:23.247Z,23.59
2017-03-01T05:08:03.749Z,23.6
2017-03-01T05:08:44.247Z,23.57
2017-03-01T05:09:24.747Z,23.62
2017-03-01T05:10:05.263Z,23.67
2017-03-01T05:10:45.754Z,23.57
2017-03-01T05:11:26.251Z,23.56
2017-03-01T05:12:06.745Z,23.59
2017-03-01T05:12:47.249Z,23.66
2017-03-01T05:13:27.750Z,23.59
2017-03-01T05:14:08.252Z,23.62
2017-03-01T05:14:48.753Z,23.67
2017-03-01T05:15:29.247Z,23.67
2017-03-01T05:16:09.725Z,23.63
2017-03-01T05:16:50.219Z,23.64
2017-03-01T05:17:30.708Z,23.59
2017-03-01T05:18:11.201Z,23.62
2017-03-01T05:18:51.694Z,23.59
2017-03-01T05:19:32.189Z,23.67
2017-03-01T05:20:12.696Z,23.7
2017-03-01T05:20:53.190Z,23.59
2017-03-01T05:21:33.694Z,23.56
2017-03-01T05:22:14.185Z,23.56
2017-03-01T05:22:54.689Z,23.63
2017-03-01T05:23:35.175Z,23.59
2017-03-01T05:24:15.664Z,23.56
2017-03-01T05:24:56.153Z,23.6
2017-03-01T05:25:36.644Z,23.6
2017-03-01T05:26:17.135Z,23.57
2017-03-01T05:26:57.618Z,23.6
2017-03-01T05:27:38.112Z,23.67
2017-03-01T05:28:18.607Z,23.59
2017-03-01T05:28:59.110Z,23.66
2017-03-01T05:29:39.586Z,23.59
2017-03-01T05:30:20.080Z,23.63
2017-03-01T05:31:00.578Z,23.66
2017-03-01T05:31:41.069Z,23.63
2017-03-01T05:32:21.554Z,23.56
2017-03-01T05:33:02.049Z,23.56
2017-03-01T05:33:42.549Z,23.59
2017-03-01T05:34:23.034Z,23.66
2017-03-01T05:35:03.527Z,23.57
2017-03-01T05:35:44.019Z,23.59
2017-03-01T05:36:24.521Z,23.64
2017-03-01T05:37:05.021Z,23.62
2017-03-01T05:37:45.521Z,23.63
2017-03-01T05:38:26.019Z,23.59
2017-03-01T05:39:06.514Z,23.59
2017-03-01T05:39:47.012Z,23.57
2017-03-01T05:40:27.513Z,23.59
2017-03-01T05:41:07.997Z,23.57
2017-03-01T05:41:48.491Z,23.57
2017-03-01T05:42:28.986Z,23.56
2017-03-01T05:43:09.469Z,23.56
2017-03-01T05:43:49.953Z,23.59
2017-03-01T05:44:30.438Z,23.56
2017-03-01T05:45:10.922Z,23.57
2017-03-01T05:45:51.414Z,23.6
2017-03-01T05:46:31.908Z,23.55
2017-03-01T05:47:12.405Z,23.53
2017-03-01T05:47:53.068Z,23.63
2017-03-01T05:48:33.538Z,23.6
2017-03-01T05:49:14.020Z,23.67
2017-03-01T05:49:54.509Z,23.57
2017-03-01T05:50:35.015Z,23.56
2017-03-01T05:51:15.514Z,23.53
2017-03-01T05:51:56.011Z,23.55
2017-03-01T05:52:36.494Z,23.53
2017-03-01T05:53:17.012Z,23.66
2017-03-01T05:53:57.512Z,23.6
2017-03-01T05:54:38.005Z,23.59
2017-03-01T05:55:18.483Z,23.53
2017-03-01T05:55:58.974Z,23.55
2017-03-01T05:56:39.459Z,23.57
2017-03-01T05:57:19.955Z,23.56
2017-03-01T05:58:00.453Z,23.62
2017-03-01T05:58:40.943Z,23.57
2017-03-01T05:59:21.445Z,23.56
2017-03-01T06:00:01.948Z,23.57
2017-03-01T06:00:42.445Z,23.63
2017-03-01T06:01:22.932Z,23.6
2017-03-01T06:02:03.421Z,23.57
2017-03-01T06:02:43.907Z,23.64
2017-03-01T06:03:24.402Z,23.66
2017-03-01T06:04:04.893Z,23.57
2017-03-01T06:04:45.383Z,23.55
2017-03-01T06:05:25.873Z,23.57
2017-03-01T06:06:06.367Z,23.56
2017-03-01T06:06:46.865Z,23.57
2017-03-01T06:07:27.353Z,23.52
2017-03-01T06:08:07.863Z,23.48
2017-03-01T06:08:48.350Z,23.52
2017-03-01T06:09:28.840Z,23.47
2017-03-01T06:10:09.347Z,23.5
2017-03-01T06:10:49.836Z,23.56
2017-03-01T06:11:30.339Z,23.55
2017-03-01T06:12:10.817Z,23.6
2017-03-01T06:12:51.315Z,23.59
2017-03-01T06:13:31.808Z,23.56
2017-03-01T06:14:12.306Z,23.56
2017-03-01T06:14:52.792Z,23.53
2017-03-01T06:15:33.285Z,23.52
2017-03-01T06:16:13.797Z,23.57
2017-03-01T06:16:54.303Z,23.55
2017-03-01T06:17:34.783Z,23.6
2017-03-01T06:18:15.284Z,23.56
2017-03-01T06:18:55.781Z,23.6
2017-03-01T06:19:36.267Z,23.6
2017-03-01T06:20:16.755Z,23.66
2017-03-01T06:20:57.252Z,23.62
2017-03-01T06:21:37.745Z,23.57
2017-03-01T06:22:18.226Z,23.62
2017-03-01T06:22:58.720Z,23.56
2017-03-01T06:23:39.235Z,23.55
2017-03-01T06:24:19.729Z,23.66
2017-03-01T06:25:00.223Z,23.56
2017-03-01T06:25:40.710Z,23.67
2017-03-01T06:26:21.213Z,23.62
2017-03-01T06:27:01.720Z,23.59
2017-03-01T06:27:42.222Z,23.64
2017-03-01T06:28:22.712Z,23.67
2017-03-01T06:29:03.374Z,23.7
2017-03-01T06:29:43.871Z,23.63
2017-03-01T06:30:24.366Z,23.67
2017-03-01T06:31:04.868Z,23.64
2017-03-01T06:31:45.361Z,23.67
2017-03-01T06:32:25.846Z,23.67
2017-03-01T06:33:06.342Z,23.67
2017-03-01T06:33:46.842Z,23.67
2017-03-01T06:34:27.319Z,23.66
2017-03-01T06:35:07.818Z,23.64
2017-03-01T06:35:48.315Z,23.66
2017-03-01T06:36:28.814Z,23.64
2017-03-01T06:37:09.312Z,23.63
2017-03-01T06:37:49.805Z,23.72
2017-03-01T06:38:30.290Z,23.66
2017-03-01T06:39:10.782Z,23.7
2017-03-01T06:39:51.279Z,23.75
2017-03-01T06:40:31.767Z,23.77
2017-03-01T06:41:12.260Z,23.77
2017-03-01T06:41:52.760Z,23.78
2017-03-01T06:42:33.257Z,23.7
2017-03-01T06:43:13.759Z,23.75
2017-03-01T06:43:54.260Z,23.74
2017-03-01T06:44:34.760Z,23.72
2017-03-01T06:45:15.240Z,23.77
2017-03-01T06:45:55.730Z,23.75
2017-03-01T06:46:36.224Z,23.77
2017-03-01T06:47:16.728Z,23.78
2017-03-01T06:47:57.214Z,23.78
2017-03-01T06:48:37.705Z,23.79
2017-03-01T06:49:18.200Z,23.75
2017-03-01T06:49:58.699Z,23.81
2017-03-01T06:50:39.203Z,23.78
2017-03-01T06:51:19.703Z,23.79
2017-03-01T06:52:00.197Z,23.78
2017-03-01T06:52:40.690Z,23.77
2017-03-01T06:53:21.200Z,23.81
2017-03-01T06:54:01.690Z,23.77
2017-03-01T06:54:42.188Z,23.78
2017-03-01T06:55:22.694Z,23.78
2017-03-01T06:56:03.197Z,23.78
2017-03-01T06:56:43.694Z,23.82
2017-03-01T06:57:24.188Z,23.85
2017-03-01T06:58:04.686Z,23.89
2017-03-01T06:58:45.201Z,23.77
2017-03-01T06:59:25.702Z,23.89
2017-03-01T07:00:06.194Z,23.89
2017-03-01T07:00:46.694Z,23.92
2017-03-01T07:01:27.180Z,23.89
2017-03-01T07:02:07.686Z,23.84
2017-03-01T07:02:48.182Z,23.97
2017-03-01T07:03:28.688Z,23.99
2017-03-01T07:04:09.195Z,24
2017-03-01T07:04:49.707Z,23.89
2017-03-01T07:05:30.192Z,23.94
2017-03-01T07:06:10.687Z,23.97
2017-03-01T07:06:51.190Z,23.94
2017-03-01T07:07:31.671Z,23.99
2017-03-01T07:08:12.171Z,24.03
2017-03-01T07:08:52.671Z,24.02
2017-03-01T07:09:33.294Z,23.99
2017-03-01T07:10:13.788Z,24.11
2017-03-01T07:10:54.284Z,24.03
2017-03-01T07:11:34.777Z,24.11
2017-03-01T07:12:15.281Z,24.04
2017-03-01T07:12:55.767Z,24.04
2017-03-01T07:13:36.257Z,24.08
2017-03-01T07:14:16.750Z,24.11
2017-03-01T07:14:57.249Z,24.07
2017-03-01T07:15:37.743Z,24
2017-03-01T07:16:18.254Z,24.12
2017-03-01T07:16:58.740Z,24.08
2017-03-01T07:17:39.231Z,24.03
2017-03-01T07:18:19.728Z,24.02
2017-03-01T07:19:00.686Z,24.03
2017-03-01T07:19:41.172Z,24.11
2017-03-01T07:20:21.663Z,24.09
2017-03-01T07:21:02.146Z,23.99
2017-03-01T07:21:42.640Z,24.03
2017-03-01T07:22:23.132Z,24.11
2017-03-01T07:23:03.627Z,24.09
2017-03-01T07:23:44.954Z,24.04
2017-03-01T07:24:25.452Z,24.03
2017-03-01T07:25:05.948Z,24.02
2017-03-01T07:25:46.444Z,24.03
2017-03-01T07:26:26.949Z,24.03
2017-03-01T07:27:07.438Z,24.08
2017-03-01T07:27:47.925Z,24.17
2017-03-01T07:28:28.420Z,24.04
2017-03-01T07:29:08.913Z,24.08
2017-03-01T07:29:49.386Z,24.03
2017-03-01T07:30:30.762Z,24.12
2017-03-01T07:31:11.255Z,24.15
2017-03-01T07:31:51.776Z,24.08
2017-03-01T07:32:32.286Z,24.14
2017-03-01T07:33:12.903Z,24.08
2017-03-01T07:33:53.391Z,24.12
2017-03-01T07:34:33.879Z,24.09
2017-03-01T07:35:14.385Z,24.18
2017-03-01T07:35:54.872Z,24.11
2017-03-01T07:36:35.386Z,24.15
2017-03-01T07:37:15.873Z,24.12
2017-03-01T07:37:56.381Z,24.14
2017-03-01T07:38:36.863Z,24.09
2017-03-01T07:39:17.375Z,24.09
2017-03-01T07:39:57.859Z,24.07
2017-03-01T07:40:38.341Z,24.11
2017-03-01T07:41:18.828Z,24.07
2017-03-01T07:41:59.322Z,24.03
2017-03-01T07:42:39.830Z,24.12
2017-03-01T07:43:20.324Z,24.14
2017-03-01T07:44:00.828Z,24.04
2017-03-01T07:44:42.495Z,24.15
2017-03-01T07:45:22.136Z,24.08
2017-03-01T07:46:02.631Z,24.04
2017-03-01T07:46:43.129Z,24.09
2017-03-01T07:47:23.610Z,24.07
2017-03-01T07:48:04.109Z,24.03
2017-03-01T07:48:44.606Z,24.03
2017-03-01T07:49:25.105Z,24.04
2017-03-01T07:50:06.185Z,24.02
2017-03-01T07:50:46.685Z,24.07
2017-03-01T07:51:27.185Z,24.07
2017-03-01T07:52:07.689Z,24.08
2017-03-01T07:52:48.182Z,24.02
2017-03-01T07:53:28.671Z,23.94
2017-03-01T07:54:09.168Z,24.08
2017-03-01T07:54:49.659Z,23.97
2017-03-01T07:55:30.154Z,24.08
2017-03-01T07:56:10.646Z,23.94
2017-03-01T07:56:51.135Z,24.02
2017-03-01T07:57:31.632Z,23.96
2017-03-01T07:58:12.120Z,23.99
2017-03-01T07:58:52.635Z,24.08
2017-03-01T07:59:33.121Z,24.03
2017-03-01T08:00:13.643Z,24.14
2017-03-01T08:00:54.108Z,24.03
2017-03-01T08:01:34.596Z,24.09
2017-03-01T08:02:15.110Z,24.09
2017-03-01T08:02:55.603Z,24.17
2017-03-01T08:03:36.925Z,24.15
2017-03-01T08:04:17.412Z,24.14
2017-03-01T08:04:57.927Z,24.14
2017-03-01T08:05:38.406Z,24.19
2017-03-01T08:06:18.894Z,24.17
2017-03-01T08:06:59.392Z,24.18
2017-03-01T08:07:39.887Z,24.19
2017-03-01T08:08:20.371Z,24.17
2017-03-01T08:09:00.900Z,24.15
2017-03-01T08:09:41.391Z,24.15
2017-03-01T08:10:22.103Z,24.15
2017-03-01T08:11:02.616Z,24.12
2017-03-01T08:11:43.193Z,24.22
2017-03-01T08:12:23.676Z,24.12
2017-03-01T08:13:04.195Z,24.12
2017-03-01T08:13:44.668Z,24.09
2017-03-01T08:14:25.151Z,24.04
2017-03-01T08:15:05.652Z,24.12
2017-03-01T08:15:46.142Z,24.04
2017-03-01T08:16:26.642Z,24.09
2017-03-01T08:17:07.125Z,24.08
2017-03-01T08:17:47.615Z,24.14
2017-03-01T08:18:28.114Z,24.15
2017-03-01T08:19:08.954Z,24.17
2017-03-01T08:19:49.517Z,24.08
2017-03-01T08:20:30.001Z,24.14
2017-03-01T08:21:11.335Z,24.11
2017-03-01T08:21:51.831Z,24.14
2017-03-01T08:22:32.336Z,24.19
2017-03-01T08:23:12.838Z,24.12
2017-03-01T08:23:53.335Z,24.14
2017-03-01T08:24:33.826Z,24.19
2017-03-01T08:25:14.323Z,24.14
2017-03-01T08:25:54.812Z,24.21
2017-03-01T08:26:35.310Z,24.22
2017-03-01T08:27:15.808Z,24.21
2017-03-01T08:27:56.304Z,24.19
2017-03-01T08:28:36.790Z,24.26
2017-03-01T08:29:17.282Z,24.27
2017-03-01T08:29:57.786Z,24.15
2017-03-01T08:30:38.283Z,24.24
2017-03-01T08:31:18.780Z,24.29
2017-03-01T08:31:59.282Z,24.3
2017-03-01T08:32:39.861Z,24.36
2017-03-01T08:33:20.354Z,24.4
2017-03-01T08:34:00.847Z,24.48
2017-03-01T08:34:41.334Z,24.44
2017-03-01T08:35:21.829Z,24.52
2017-03-01T08:36:02.330Z,24.54
2017-03-01T08:36:42.845Z,24.52
2017-03-01T08:37:23.407Z,24.49
2017-03-01T08:38:03.883Z,24.37
2017-03-01T08:38:44.372Z,24.52
2017-03-01T08:39:24.863Z,24.45
2017-03-01T08:40:05.365Z,24.52
2017-03-01T08:40:45.866Z,24.55
2017-03-01T08:41:26.367Z,24.48
2017-03-01T08:42:06.847Z,24.42
2017-03-01T08:42:47.333Z,24.44
2017-03-01T08:43:27.827Z,24.36
2017-03-01T08:44:08.298Z,24.4
2017-03-01T08:44:48.807Z,24.44